Time;durP1;ratioP1;P1;durP2;ratioP2;P2;SDS_P1;SDS_P2;PMS_P1;PMS_P2;Temp;Humidity;BMP_temperature;BMP_pressure;BME280_temperature;BME280_humidity;BME280_pressure;Samples;Min_cycle;Max_cycle;Signal;HPM_P1;HPM_P2
2022/06/22 00:02:08;;;;;;;0.90;0.50;;;;;;;29.10;22.22;97792.81;5075273;28;20134;-77
2022/06/22 00:04:41;;;;;;;0.98;0.40;;;;;;;29.18;21.59;97779.94;5075850;28;20032;-76
2022/06/22 00:07:21;;;;;;;2.20;0.50;;;;;;;29.10;21.64;97785.09;5075380;28;20431;-76
2022/06/22 00:09:52;;;;;;;0.98;0.57;;;;;;;29.24;21.65;97792.19;5081190;28;20521;-76
2022/06/22 00:12:25;;;;;;;1.10;0.40;;;;;;;28.92;22.15;97787.19;5095431;28;20032;-76
2022/06/22 00:14:55;;;;;;;0.73;0.73;;;;;;;29.02;22.03;97789.53;5095610;28;20029;-76
2022/06/22 00:17:37;;;;;;;0.40;0.40;;;;;;;28.79;22.10;97790.22;5095293;28;20035;-77
2022/06/22 00:20:21;;;;;;;2.83;0.85;;;;;;;28.98;22.14;97782.47;5077039;28;20483;-76
2022/06/22 00:22:53;;;;;;;0.63;0.40;;;;;;;29.10;22.00;97781.50;5095304;28;20024;-76
2022/06/22 00:25:21;;;;;;;;;;;;;;;28.95;22.63;97789.88;5085580;28;20052;-76
2022/06/22 00:27:47;;;;;;;0.40;0.35;;;;;;;29.23;21.89;97785.75;5080787;28;19920;-76
2022/06/22 00:30:19;;;;;;;0.52;0.40;;;;;;;29.27;21.54;97792.00;5075086;28;20036;-76
2022/06/22 00:33:13;;;;;;;0.52;0.40;;;;;;;29.29;21.39;97786.66;5074723;28;20031;-76
2022/06/22 00:35:48;;;;;;;2.42;0.40;;;;;;;29.34;21.00;97796.53;5075154;28;20024;-76
2022/06/22 00:38:28;;;;;;;0.93;0.50;;;;;;;29.30;21.31;97798.75;5074389;28;20078;-76
2022/06/22 00:41:12;;;;;;;1.63;0.60;;;;;;;29.24;21.47;97800.66;5074953;28;20040;-76
2022/06/22 00:43:38;;;;;;;0.40;0.40;;;;;;;29.10;21.76;97807.72;5079320;28;20073;-76
2022/06/22 00:46:14;;;;;;;1.90;0.40;;;;;;;29.00;21.57;97811.84;5094876;28;20062;-76
2022/06/22 00:48:42;;;;;;;0.88;0.40;;;;;;;29.06;22.05;97814.81;5094860;28;20388;-76
2022/06/22 00:51:18;;;;;;;0.63;0.40;;;;;;;29.12;21.65;97812.91;5094673;28;20384;-76
2022/06/22 00:53:54;;;;;;;0.45;0.40;;;;;;;29.16;21.59;97816.34;5094435;28;20032;-76
2022/06/22 00:56:25;;;;;;;1.10;0.40;;;;;;;29.28;21.45;97824.69;5080052;28;20041;-76
2022/06/22 00:59:14;;;;;;;0.57;0.57;;;;;;;29.33;21.74;97820.44;5074424;28;20040;-76
2022/06/22 01:02:00;;;;;;;0.80;0.43;;;;;;;29.17;21.40;97829.25;5082157;28;20495;-76
2022/06/22 01:04:40;;;;;;;0.93;0.60;;;;;;;29.08;21.72;97841.34;5094574;28;20076;-76
2022/06/22 01:07:33;;;;;;;1.02;0.40;;;;;;;29.14;21.47;97841.50;5094572;28;20024;-76
2022/06/22 01:10:03;;;;;;;1.42;0.70;;;;;;;29.10;21.63;97832.41;5094364;28;20482;-76
2022/06/22 01:12:52;;;;;;;0.50;0.50;;;;;;;28.99;21.64;97841.38;5094403;28;20077;-76
2022/06/22 01:15:31;;;;;;;1.08;0.50;;;;;;;28.92;21.79;97832.41;5094578;28;20111;-76
2022/06/22 01:18:15;;;;;;;0.70;0.50;;;;;;;28.56;22.82;97836.03;5086031;28;20028;-76
2022/06/22 01:20:55;;;;;;;0.70;0.60;;;;;;;28.25;23.26;97838.19;5073807;28;20112;-76
2022/06/22 01:23:52;;;;;;;0.73;0.60;;;;;;;28.16;23.66;97841.78;5073627;28;20020;-76
2022/06/22 01:26:21;;;;;;;0.70;0.50;;;;;;;28.22;23.58;97841.94;5073894;28;20033;-76
2022/06/22 01:28:58;;;;;;;1.15;0.50;;;;;;;28.31;23.57;97837.09;5073671;28;20036;-76
2022/06/22 01:31:24;;;;;;;1.60;0.60;;;;;;;28.22;23.86;97830.66;5074113;28;20055;-76
2022/06/22 01:33:52;;;;;;;1.17;0.70;;;;;;;28.42;23.67;97836.66;5074055;28;20035;-76
2022/06/22 01:36:30;;;;;;;1.25;0.57;;;;;;;27.92;24.17;97838.72;5091284;28;20484;-76
2022/06/22 01:38:56;;;;;;;2.15;1.00;;;;;;;27.99;24.48;97840.50;5094194;28;20035;-76
2022/06/22 01:41:30;;;;;;;1.23;0.77;;;;;;;27.75;24.55;97840.22;5093798;28;20103;-76
2022/06/22 01:44:13;;;;;;;1.50;1.20;;;;;;;27.49;25.48;97838.88;5093878;28;20434;-76
2022/06/22 01:47:05;;;;;;;2.50;1.27;;;;;;;27.25;25.59;97837.78;5093736;28;20039;-76
2022/06/22 01:49:56;;;;;;;3.63;1.10;;;;;;;27.22;26.01;97841.53;5093578;28;20118;-76
2022/06/22 01:52:43;;;;;;;1.92;1.13;;;;;;;27.96;25.01;97842.19;5096492;28;20068;-76
2022/06/22 01:55:41;;;;;;;1.45;1.20;;;;;;;28.01;24.55;97843.63;5093100;28;20027;-77
2022/06/22 01:58:12;;;;;;;1.65;0.90;;;;;;;27.97;24.60;97843.75;5093295;28;20040;-76
2022/06/22 02:00:39;;;;;;;3.72;1.77;;;;;;;27.81;25.24;97846.84;5081906;28;20040;-76
2022/06/22 02:03:28;;;;;;;3.30;0.93;;;;;;;27.45;25.04;97837.44;5075342;28;20058;-77
2022/06/22 02:07:44;;;;;;;4.60;1.58;;;;;;;27.89;25.35;97850.94;5093425;28;20031;-76
2022/06/22 02:08:53;;;;;;;3.83;1.00;;;;;;;27.72;24.46;97848.84;5086033;28;20052;-76
2022/06/22 02:11:23;;;;;;;5.50;1.48;;;;;;;27.92;25.39;97850.00;5073177;28;20028;-76
2022/06/22 02:14:03;;;;;;;3.35;1.58;;;;;;;27.85;25.09;97855.16;5073222;28;20477;-76
2022/06/22 02:16:40;;;;;;;2.25;1.20;;;;;;;28.29;24.74;97850.91;5073154;28;20025;-76
2022/06/22 02:19:14;;;;;;;2.33;1.05;;;;;;;28.24;24.81;97854.34;5073148;28;20040;-76
2022/06/22 02:21:49;;;;;;;1.30;1.00;;;;;;;28.13;24.38;97851.19;5073128;28;20033;-76
2022/06/22 02:24:26;;;;;;;6.03;1.35;;;;;;;28.05;24.15;97844.28;5080880;28;20130;-76
2022/06/22 02:27:00;;;;;;;2.25;1.33;;;;;;;28.56;24.48;97842.47;5078632;28;20036;-76
2022/06/22 02:29:32;;;;;;;3.40;1.55;;;;;;;28.65;24.34;97847.38;5072932;28;20056;-76
2022/06/22 02:32:02;;;;;;;2.33;2.00;;;;;;;28.69;24.21;97848.78;5072949;28;20035;-76
2022/06/22 02:34:30;;;;;;;2.22;1.40;;;;;;;28.83;24.36;97844.53;5073141;28;20113;-76
2022/06/22 02:36:57;;;;;;;1.40;1.30;;;;;;;29.07;23.90;97853.94;5073159;28;20032;-76
2022/06/22 02:39:25;;;;;;;3.97;1.30;;;;;;;28.93;24.08;97854.56;5073230;28;20060;-76
2022/06/22 02:44:41;;;;;;;3.88;2.10;;;;;;;28.73;24.05;97876.84;5073197;28;20127;-76
2022/06/22 02:47:44;;;;;;;2.83;1.65;;;;;;;28.63;24.14;97886.59;5072854;28;20021;-76
2022/06/22 02:50:35;;;;;;;1.58;1.10;;;;;;;28.20;24.33;97898.09;5072738;28;20060;-76
2022/06/22 02:53:12;;;;;;;2.63;1.20;;;;;;;28.62;24.38;97885.81;5072642;28;20033;-76
2022/06/22 02:55:38;;;;;;;1.73;1.02;;;;;;;28.87;24.10;97892.44;5072431;28;20036;-77
2022/06/22 02:58:21;;;;;;;1.33;1.05;;;;;;;28.90;23.77;97892.25;5064527;28;20421;-76
2022/06/22 03:00:47;;;;;;;3.45;1.00;;;;;;;29.45;23.45;97900.72;5083765;28;20106;-76
2022/06/22 03:03:16;;;;;;;1.55;1.02;;;;;;;29.77;22.47;97897.19;5092782;28;20063;-76
2022/06/22 03:05:45;;;;;;;1.58;0.82;;;;;;;29.93;22.12;97899.63;5093024;28;20024;-76
2022/06/22 03:08:13;;;;;;;4.07;0.80;;;;;;;30.15;21.88;97897.31;5093422;28;20036;-76
2022/06/22 03:10:45;;;;;;;1.73;0.80;;;;;;;29.97;22.11;97898.19;5092924;28;20028;-76
2022/06/22 03:13:28;;;;;;;1.55;0.80;;;;;;;30.19;21.76;97906.44;5095723;28;20036;-76
2022/06/22 03:15:56;;;;;;;1.10;0.80;;;;;;;30.35;21.47;97911.72;5092548;28;20131;-76
2022/06/22 03:18:26;;;;;;;1.02;0.68;;;;;;;30.43;21.61;97918.59;5094513;28;20028;-76
2022/06/22 03:21:00;;;;;;;1.52;0.88;;;;;;;30.60;21.47;97927.44;5096593;28;20560;-76
2022/06/22 03:23:45;;;;;;;1.50;0.70;;;;;;;30.67;21.17;97925.03;5084315;28;20032;-76
2022/06/22 03:26:23;;;;;;;2.25;0.82;;;;;;;30.62;21.45;97917.19;5076048;28;20495;-76
2022/06/22 03:29:05;;;;;;;1.45;0.80;;;;;;;30.64;21.62;97928.84;5076043;28;20035;-76
2022/06/22 03:31:44;;;;;;;2.97;1.00;;;;;;;30.41;21.84;97923.94;5075978;28;20052;-76
2022/06/22 03:34:24;;;;;;;0.95;0.63;;;;;;;30.37;22.32;97919.72;5079525;28;20028;-76
2022/06/22 03:36:56;;;;;;;2.65;1.27;;;;;;;30.55;22.42;97913.97;5076337;28;20067;-76
2022/06/22 03:39:29;;;;;;;3.28;1.00;;;;;;;31.27;22.11;97916.22;5075936;28;20024;-76
2022/06/22 03:42:03;;;;;;;2.00;1.02;;;;;;;32.03;22.02;97908.81;5075950;28;20024;-76
2022/06/22 03:44:42;;;;;;;2.45;1.00;;;;;;;32.68;21.25;97904.59;5075842;28;20504;-76
2022/06/22 03:47:14;;;;;;;1.00;0.63;;;;;;;33.18;21.08;97891.81;5075567;28;20511;-76
2022/06/22 03:50:03;;;;;;;0.77;0.73;;;;;;;33.41;20.70;97893.59;5076327;28;20032;-77
2022/06/22 03:52:43;;;;;;;1.38;0.70;;;;;;;33.98;19.73;97901.38;5093771;28;20503;-77
2022/06/22 03:55:15;;;;;;;1.17;1.05;;;;;;;34.26;20.41;97896.66;5075703;28;20115;-76
2022/06/22 03:57:44;;;;;;;1.48;0.63;;;;;;;34.44;20.20;97896.28;5075274;28;20086;-77
2022/06/22 04:00:12;;;;;;;1.25;0.60;;;;;;;34.67;20.51;97892.28;5075396;28;20033;-77
2022/06/22 04:02:39;;;;;;;0.88;0.77;;;;;;;34.82;20.05;97894.16;5082818;28;20033;-77
2022/06/22 04:05:11;;;;;;;0.50;0.50;;;;;;;34.79;19.73;97889.47;5089858;28;20028;-77
2022/06/22 04:07:39;;;;;;;0.98;0.50;;;;;;;34.77;20.05;97892.84;5090254;28;20033;-77
2022/06/22 04:10:13;;;;;;;0.65;0.65;;;;;;;34.09;19.89;97895.78;5075408;28;20162;-77
2022/06/22 04:12:45;;;;;;;0.68;0.60;;;;;;;33.95;20.62;97903.16;5075326;28;20523;-77
2022/06/22 04:15:33;;;;;;;1.92;0.60;;;;;;;34.41;21.12;97897.28;5075332;28;20036;-77
2022/06/22 04:18:21;;;;;;;1.67;0.60;;;;;;;34.44;19.66;97893.41;5075113;28;20119;-77
2022/06/22 04:20:54;;;;;;;1.02;0.70;;;;;;;34.57;20.35;97904.41;5075101;28;20060;-77
2022/06/22 04:23:20;;;;;;;0.80;0.70;;;;;;;34.98;19.56;97910.56;5074944;28;20111;-77
2022/06/22 04:25:47;;;;;;;1.13;0.60;;;;;;;35.06;19.47;97911.63;5088695;28;20063;-77
2022/06/22 04:28:15;;;;;;;1.30;0.80;;;;;;;34.69;20.52;97906.81;5110800;28;20559;-77
2022/06/22 04:30:45;;;;;;;0.63;0.45;;;;;;;34.74;19.74;97903.19;5094723;28;20032;-77
2022/06/22 04:33:22;;;;;;;0.77;0.50;;;;;;;34.87;19.65;97916.22;5085021;28;20041;-77
2022/06/22 04:36:14;;;;;;;1.42;0.43;;;;;;;35.09;18.83;97919.19;5079488;28;20020;-77
2022/06/22 04:38:50;;;;;;;0.52;0.47;;;;;;;35.26;19.16;97923.66;5095603;28;20028;-77
2022/06/22 04:41:28;;;;;;;1.63;0.50;;;;;;;35.30;19.35;97921.31;5089040;28;20380;-77
2022/06/22 04:44:04;;;;;;;0.70;0.50;;;;;;;35.31;18.71;97924.97;5094834;28;20533;-77
2022/06/22 04:46:34;;;;;;;1.38;0.52;;;;;;;35.26;18.71;97926.53;5110260;28;20038;-77
2022/06/22 04:49:27;;;;;;;0.37;0.33;;;;;;;35.39;19.41;97923.16;5094848;28;20089;-77
2022/06/22 04:52:18;;;;;;;0.80;0.60;;;;;;;35.64;18.63;97930.00;5087704;28;20029;-77
2022/06/22 04:54:45;;;;;;;5.32;0.60;;;;;;;35.78;18.82;97931.84;5074511;28;20117;-77
2022/06/22 04:57:39;;;;;;;0.77;0.77;;;;;;;35.76;18.87;97929.47;5074179;28;20202;-77
2022/06/22 05:00:14;;;;;;;0.80;0.55;;;;;;;35.96;19.16;97929.25;5077022;28;20411;-75
2022/06/22 05:02:44;;;;;;;1.08;0.50;;;;;;;36.09;19.09;97931.59;5074113;28;20033;-75
2022/06/22 05:05:37;;;;;;;0.57;0.30;;;;;;;36.29;19.02;97934.19;5090599;28;20020;-75
2022/06/22 05:08:25;;;;;;;0.93;0.50;;;;;;;36.34;18.84;97941.97;5092750;28;20043;-75
2022/06/22 05:11:13;;;;;;;0.95;0.60;;;;;;;35.98;18.18;97938.09;5076771;28;20031;-75
2022/06/22 05:13:43;;;;;;;0.88;0.43;;;;;;;35.85;18.32;97939.91;5094408;28;20031;-75
2022/06/22 05:16:16;;;;;;;1.07;0.70;;;;;;;35.84;18.52;97944.81;5084899;28;20119;-75
2022/06/22 05:18:46;;;;;;;1.02;0.82;;;;;;;35.32;18.78;97938.72;5074087;28;20029;-75
2022/06/22 05:21:37;;;;;;;2.05;0.60;;;;;;;35.28;19.57;97954.53;5073786;28;20033;-75
2022/06/22 05:24:26;;;;;;;0.68;0.50;;;;;;;35.48;18.74;97945.75;5073897;28;20415;-75
2022/06/22 05:26:55;;;;;;;0.85;0.50;;;;;;;35.79;19.24;97948.44;5073828;28;20060;-75
2022/06/22 05:29:31;;;;;;;0.65;0.50;;;;;;;35.60;18.66;97940.88;5073443;28;20071;-75
2022/06/22 05:32:00;;;;;;;0.73;0.60;;;;;;;35.46;18.94;97954.06;5073468;28;20027;-75
2022/06/22 05:34:31;;;;;;;0.88;0.65;;;;;;;35.67;19.07;97957.50;5074512;28;20032;-75
2022/06/22 05:37:17;;;;;;;;;;;;;;;36.00;18.54;97964.09;5069426;28;20420;-74
2022/06/22 05:39:44;;;;;;;2.05;0.55;;;;;;;36.41;18.95;97972.13;5093423;28;19911;-75
2022/06/22 05:42:13;;;;;;;0.50;0.50;;;;;;;36.69;18.30;97965.06;5094001;28;20529;-75
2022/06/22 05:44:39;;;;;;;1.65;0.47;;;;;;;36.88;18.38;97971.00;5093769;28;20054;-75
2022/06/22 05:47:06;;;;;;;0.70;0.40;;;;;;;36.91;18.60;97977.75;5093726;28;20498;-75
2022/06/22 05:49:47;;;;;;;0.60;0.50;;;;;;;36.97;17.92;97975.72;5087959;28;20024;-75
2022/06/22 05:52:41;;;;;;;0.50;0.50;;;;;;;36.63;17.97;97970.03;5073573;28;20024;-75
2022/06/22 05:55:28;;;;;;;0.60;0.30;;;;;;;36.50;18.09;97983.34;5073227;28;20025;-75
2022/06/22 05:58:05;;;;;;;0.77;0.47;;;;;;;36.54;18.44;97972.41;5072865;28;20063;-75
2022/06/22 06:00:50;;;;;;;0.30;0.28;;;;;;;36.49;17.81;97970.31;5073207;28;20141;-75
2022/06/22 06:03:25;;;;;;;3.40;0.47;;;;;;;36.43;18.73;97969.53;5073061;28;20093;-77
2022/06/22 06:06:00;;;;;;;1.25;0.47;;;;;;;36.38;18.27;97965.38;5071296;28;20508;-77
2022/06/22 06:08:39;;;;;;;1.60;0.55;;;;;;;36.35;18.68;97959.91;5073837;28;20037;-77
2022/06/22 06:11:06;;;;;;;0.52;0.52;;;;;;;36.50;18.88;97949.75;5073584;28;20036;-74
2022/06/22 06:13:34;;;;;;;0.93;0.40;;;;;;;36.80;18.37;97952.03;5055064;28;20029;-75
2022/06/22 06:16:06;;;;;;;0.63;0.43;;;;;;;36.70;18.07;97942.97;5073208;28;20476;-75
2022/06/22 06:18:40;;;;;;;0.55;0.43;;;;;;;36.76;17.93;97945.81;5073085;28;20032;-75
2022/06/22 06:21:15;;;;;;;0.45;0.30;;;;;;;37.06;17.37;97943.91;5073056;28;20373;-75
2022/06/22 06:23:50;;;;;;;0.43;0.40;;;;;;;37.30;16.95;97946.91;5078120;28;20134;-75
2022/06/22 06:29:53;;;;;;;0.40;0.40;;;;;;;37.34;17.13;97936.72;5093346;28;20143;-75
2022/06/22 06:32:37;;;;;;;1.23;1.08;;;;;;;37.17;17.32;97938.91;5100284;28;20035;-75
2022/06/22 06:35:42;;;;;;;1.38;0.45;;;;;;;37.46;16.87;97942.44;5073138;28;20036;-75
2022/06/22 06:38:23;;;;;;;1.05;0.55;;;;;;;36.67;16.73;97941.94;5071423;28;20055;-75
2022/06/22 06:41:01;;;;;;;0.40;0.40;;;;;;;36.48;17.82;97935.22;5079251;28;20032;-75
2022/06/22 06:43:48;;;;;;;0.85;0.50;;;;;;;36.92;17.04;97934.34;5093233;28;20024;-75
2022/06/22 06:46:23;;;;;;;1.48;0.70;;;;;;;36.86;17.14;97941.34;5093154;28;20110;-77
2022/06/22 06:49:00;;;;;;;0.95;0.30;;;;;;;36.84;17.38;97944.75;5096658;28;20032;-75
2022/06/22 06:51:30;;;;;;;1.05;0.60;;;;;;;36.35;17.20;97932.09;5086262;28;20104;-75
2022/06/22 06:54:06;;;;;;;0.50;0.50;;;;;;;36.66;17.59;97931.81;5076749;28;20062;-75
2022/06/22 06:56:46;;;;;;;0.70;0.50;;;;;;;36.88;17.09;97930.94;5076711;28;20512;-75
2022/06/22 06:59:20;;;;;;;1.20;0.65;;;;;;;36.61;16.84;97931.81;5109799;28;20028;-75
2022/06/22 07:01:47;;;;;;;0.70;0.47;;;;;;;36.50;17.17;97949.75;5096874;28;20082;-75
2022/06/22 07:04:28;;;;;;;0.30;0.30;;;;;;;35.12;18.77;97947.50;5080467;28;20454;-75
2022/06/22 07:07:13;;;;;;;0.52;0.30;;;;;;;35.04;18.49;97937.06;5090552;28;20084;-75
2022/06/22 07:09:40;;;;;;;1.10;0.45;;;;;;;35.20;18.11;97939.97;5096499;28;20460;-75
2022/06/22 07:12:36;;;;;;;0.40;0.40;;;;;;;35.40;18.09;97925.50;5096620;28;20111;-75
2022/06/22 07:15:05;;;;;;;0.55;0.30;;;;;;;35.28;17.94;97929.63;5086942;28;20043;-75
2022/06/22 07:17:32;;;;;;;1.33;0.50;;;;;;;35.50;17.54;97936.69;5096686;28;20098;-75
2022/06/22 07:20:22;;;;;;;3.42;0.43;;;;;;;34.57;17.83;97935.75;5083474;28;20089;-75
2022/06/22 07:22:59;;;;;;;4.65;0.40;;;;;;;34.98;17.88;97937.03;5076403;28;20032;-75
2022/06/22 07:26:05;;;;;;;1.95;0.60;;;;;;;35.88;17.54;97916.75;5075978;28;20120;-75
2022/06/22 07:28:53;;;;;;;1.13;0.50;;;;;;;36.70;16.09;97915.13;5056811;28;20053;-75
2022/06/22 07:31:33;;;;;;;0.88;0.60;;;;;;;36.11;16.12;97923.28;5081649;28;20028;-75
2022/06/22 07:34:02;;;;;;;0.95;0.32;;;;;;;35.55;16.66;97918.78;5075930;28;20021;-75
2022/06/22 07:36:37;;;;;;;0.52;0.38;;;;;;;34.65;17.86;97922.59;5085964;28;20036;-75
2022/06/22 07:39:11;;;;;;;1.50;0.60;;;;;;;34.71;17.53;97921.31;5077696;28;20043;-75
2022/06/22 07:41:38;;;;;;;1.00;0.50;;;;;;;35.26;18.24;97909.38;5077952;28;20099;-75
2022/06/22 07:44:27;;;;;;;0.70;0.40;;;;;;;35.44;16.99;97905.25;5096086;28;20067;-75
2022/06/22 07:47:00;;;;;;;4.32;0.60;;;;;;;35.25;17.12;97909.88;5096179;28;20023;-75
2022/06/22 07:49:40;;;;;;;0.75;0.50;;;;;;;34.81;16.68;97916.19;5083634;28;20033;-75
2022/06/22 07:52:11;;;;;;;0.23;0.23;;;;;;;34.64;17.67;97918.16;5075976;28;20035;-75
2022/06/22 07:54:49;;;;;;;0.47;0.30;;;;;;;34.26;18.46;97915.84;5075361;28;20024;-75
2022/06/22 07:57:27;;;;;;;0.38;0.20;;;;;;;34.71;17.05;97918.47;5075359;28;20508;-75
2022/06/22 08:00:00;;;;;;;0.40;0.40;;;;;;;34.57;17.78;97916.59;5075848;28;20039;-75
2022/06/22 08:02:36;;;;;;;1.05;0.50;;;;;;;33.45;19.45;97918.97;5085093;28;20031;-75
2022/06/22 08:05:11;;;;;;;0.63;0.40;;;;;;;32.93;19.84;97909.56;5075870;28;20052;-75
2022/06/22 08:07:46;;;;;;;0.50;0.30;;;;;;;32.80;20.45;97909.16;5075283;28;20029;-75
2022/06/22 08:10:36;;;;;;;0.90;0.57;;;;;;;32.91;19.41;97914.22;5075244;28;20084;-75
2022/06/22 08:13:20;;;;;;;0.40;0.30;;;;;;;34.25;17.97;97906.53;5075459;28;20036;-75
2022/06/22 08:16:03;;;;;;;2.85;0.60;;;;;;;33.55;18.90;97920.41;5075582;28;20103;-75
2022/06/22 08:18:30;;;;;;;0.88;0.50;;;;;;;33.32;18.18;97916.53;5075196;28;20048;-75
2022/06/22 08:20:58;;;;;;;0.50;0.35;;;;;;;33.73;17.69;97913.56;5075256;28;20028;-75
2022/06/22 08:23:27;;;;;;;1.52;0.52;;;;;;;33.84;17.89;97913.69;5080701;28;20029;-77
2022/06/22 08:25:56;;;;;;;1.48;0.70;;;;;;;34.98;17.86;97907.69;5075021;28;20028;-77
2022/06/22 08:28:24;;;;;;;2.13;0.40;;;;;;;35.01;17.79;97898.88;5075079;28;20036;-77
2022/06/22 08:30:53;;;;;;;1.58;0.50;;;;;;;34.03;16.34;97918.53;5075192;28;20035;-77
2022/06/22 08:33:30;;;;;;;0.80;0.40;;;;;;;32.77;18.16;97917.94;5085057;28;20103;-77
2022/06/22 08:36:15;;;;;;;0.90;0.52;;;;;;;33.35;16.92;97924.06;5095334;28;20028;-77
2022/06/22 08:39:02;;;;;;;3.50;0.50;;;;;;;33.34;17.56;97922.50;5092399;28;20036;-77
2022/06/22 08:42:02;;;;;;;0.40;0.40;;;;;;;33.22;17.23;97922.88;5094186;28;20032;-77
2022/06/22 08:44:40;;;;;;;0.73;0.40;;;;;;;33.55;16.61;97917.56;5094817;28;20113;-77
2022/06/22 08:47:34;;;;;;;0.77;0.60;;;;;;;32.68;18.57;97907.47;5094863;28;20540;-77
2022/06/22 08:50:06;;;;;;;1.08;0.60;;;;;;;33.61;18.30;97926.94;5074988;28;20032;-77
2022/06/22 08:53:21;;;;;;;0.88;0.50;;;;;;;34.02;17.20;97933.25;5074382;28;20036;-77
2022/06/22 08:56:03;;;;;;;2.13;0.50;;;;;;;33.32;18.89;97935.69;5066233;28;20560;-77
2022/06/22 08:58:57;;;;;;;0.85;0.50;;;;;;;32.63;19.37;97925.22;5072304;28;20040;-77
2022/06/22 09:01:43;;;;;;;3.15;0.63;;;;;;;30.48;21.14;97912.25;5075840;28;20041;-77
2022/06/22 09:04:47;;;;;;;1.05;0.60;;;;;;;31.97;20.73;97928.59;5094599;28;20031;-77
2022/06/22 09:07:29;;;;;;;0.80;0.60;;;;;;;33.07;18.98;97930.75;5094203;28;20024;-77
2022/06/22 09:10:21;;;;;;;1.05;0.60;;;;;;;34.41;17.38;97922.16;5094357;28;20032;-76
2022/06/22 09:13:21;;;;;;;1.08;0.57;;;;;;;33.49;17.53;97927.31;5093477;28;20039;-77
2022/06/22 09:16:08;;;;;;;0.53;0.53;;;;;;;34.02;17.67;97916.97;5074103;28;20488;-77
2022/06/22 09:19:15;;;;;;;1.23;0.57;;;;;;;34.72;16.92;97913.56;5073821;28;20293;-77
2022/06/22 09:21:50;;;;;;;1.08;0.70;;;;;;;34.34;17.69;97922.63;5072505;28;20036;-77
2022/06/22 09:24:21;;;;;;;1.35;0.63;;;;;;;34.03;18.08;97920.59;5073845;28;20037;-77
2022/06/22 09:27:16;;;;;;;1.20;0.70;;;;;;;33.71;18.70;97916.94;5073715;28;20047;-77
2022/06/22 09:30:20;;;;;;;4.10;0.60;;;;;;;34.20;18.33;97912.16;5056371;28;20077;-77
2022/06/22 09:32:58;;;;;;;1.83;0.50;;;;;;;35.19;17.26;97911.97;5079407;28;20107;-77
2022/06/22 09:35:33;;;;;;;1.17;0.55;;;;;;;34.80;18.30;97911.75;5093748;28;20556;-77
2022/06/22 09:38:29;;;;;;;0.80;0.57;;;;;;;33.99;18.62;97920.03;5094135;28;20028;-77
2022/06/22 09:41:18;;;;;;;1.92;0.90;;;;;;;32.93;19.10;97917.34;5073458;28;20060;-77
2022/06/22 09:44:16;;;;;;;1.88;0.50;;;;;;;35.01;18.09;97913.16;5073499;28;20670;-77
2022/06/22 09:47:20;;;;;;;2.60;0.70;;;;;;;35.32;16.78;97895.88;5074105;28;20033;-77
2022/06/22 09:50:14;;;;;;;1.52;0.60;;;;;;;34.07;17.77;97904.81;5088671;28;20059;-77
2022/06/22 09:53:01;;;;;;;2.97;0.60;;;;;;;34.20;17.94;97907.25;5073835;28;20037;-78
2022/06/22 09:56:20;;;;;;;1.05;0.65;;;;;;;33.49;18.48;97905.31;5073581;28;20029;-78
2022/06/22 09:58:55;;;;;;;0.70;0.70;;;;;;;33.85;17.01;97906.69;5073295;28;20496;-77
2022/06/22 10:02:06;;;;;;;0.70;0.70;;;;;;;35.52;16.88;97886.34;5073218;28;20028;-77
2022/06/22 10:05:07;;;;;;;1.35;0.65;;;;;;;36.28;15.95;97880.34;5070366;28;20045;-77
2022/06/22 10:07:52;;;;;;;1.58;0.60;;;;;;;36.58;15.55;97887.06;5085903;28;20183;-78
2022/06/22 10:10:32;;;;;;;0.90;0.50;;;;;;;36.37;15.46;97878.00;5073217;28;20041;-77
2022/06/22 10:13:10;;;;;;;2.65;0.60;;;;;;;35.56;15.63;97894.66;5073163;28;20032;-77
2022/06/22 10:15:48;;;;;;;0.55;0.50;;;;;;;35.25;16.36;97887.03;5073170;28;20093;-78
2022/06/22 10:18:38;;;;;;;0.60;0.40;;;;;;;36.20;15.07;97890.78;5072667;28;20028;-78
2022/06/22 10:21:37;;;;;;;2.58;0.60;;;;;;;36.67;15.63;97878.19;5073784;28;20039;-77
2022/06/22 10:24:38;;;;;;;0.45;0.40;;;;;;;35.96;15.91;97885.59;5093561;28;20036;-77
2022/06/22 10:27:45;;;;;;;1.77;0.80;;;;;;;36.05;15.77;97891.84;5070105;28;20416;-77
2022/06/22 10:30:22;;;;;;;0.90;0.40;;;;;;;35.17;16.45;97880.28;5072961;28;20470;-78
2022/06/22 10:33:10;;;;;;;0.80;0.60;;;;;;;34.52;16.09;97891.66;5074711;28;20032;-78
2022/06/22 10:36:14;;;;;;;1.33;0.50;;;;;;;35.66;15.00;97879.59;5093471;28;20024;-78
2022/06/22 10:39:28;;;;;;;1.30;0.52;;;;;;;36.15;14.53;97874.41;5087143;28;20499;-78
2022/06/22 10:45:16;;;;;;;1.02;0.70;;;;;;;35.72;14.59;97874.69;5073127;28;20040;-78
2022/06/22 10:47:56;;;;;;;1.67;0.77;;;;;;;35.23;14.51;97861.09;5083008;28;20057;-78
2022/06/22 10:50:39;;;;;;;2.83;0.60;;;;;;;35.27;15.77;97873.03;5092949;28;20039;-78
2022/06/22 10:53:20;;;;;;;1.30;0.60;;;;;;;35.43;15.13;97875.13;5093430;28;20270;-78
2022/06/22 10:56:00;;;;;;;1.08;0.57;;;;;;;35.12;15.82;97863.94;5086252;28;20028;-78
2022/06/22 10:58:48;;;;;;;1.55;0.63;;;;;;;35.93;14.77;97858.81;5072618;28;20087;-77
2022/06/22 11:01:28;;;;;;;1.73;0.80;;;;;;;37.06;14.45;97858.78;5073471;28;20039;-78
2022/06/22 11:04:25;;;;;;;0.63;0.60;;;;;;;36.33;14.43;97853.84;5093071;28;20407;-78
2022/06/22 11:07:28;;;;;;;1.95;0.60;;;;;;;36.21;14.72;97849.44;5092797;28;20050;-78
2022/06/22 11:10:10;;;;;;;0.98;0.70;;;;;;;36.53;14.54;97862.13;5092803;28;20115;-78
2022/06/22 11:13:21;;;;;;;1.45;0.60;;;;;;;37.92;15.05;97862.91;5087088;28;20120;-78
2022/06/22 11:16:11;;;;;;;0.93;0.40;;;;;;;37.32;13.22;97862.00;5080136;28;20040;-79
2022/06/22 11:18:56;;;;;;;;;;;;;;;37.49;13.78;97866.88;5055095;28;20131;-78
2022/06/22 11:22:07;;;;;;;2.28;0.52;;;;;;;37.97;13.78;97861.31;5072476;28;19912;-78
2022/06/22 11:24:44;;;;;;;1.23;0.50;;;;;;;36.63;13.44;97863.38;5062122;28;20451;-78
2022/06/22 11:30:53;;;;;;;0.57;0.45;;;;;;;35.39;15.74;97866.03;5077786;28;20044;-78
2022/06/22 11:33:22;;;;;;;0.93;0.40;;;;;;;35.64;14.73;97856.47;5072457;28;20384;-78
2022/06/22 11:35:57;;;;;;;0.63;0.45;;;;;;;35.88;14.19;97855.97;5108446;28;20455;-78
2022/06/22 11:38:35;;;;;;;1.42;0.30;;;;;;;37.17;13.39;97849.34;5096157;28;20024;-78
2022/06/22 11:41:31;;;;;;;1.27;0.40;;;;;;;36.43;13.90;97853.00;5096454;28;20093;-78
2022/06/22 11:44:25;;;;;;;1.30;0.40;;;;;;;34.70;15.63;97859.84;5096242;28;20038;-78
2022/06/22 11:46:55;;;;;;;1.30;0.30;;;;;;;35.34;15.61;97861.09;5093552;28;20028;-78
2022/06/22 11:49:49;;;;;;;0.30;0.30;;;;;;;35.05;15.02;97859.50;5096112;28;20028;-78
2022/06/22 11:52:52;;;;;;;0.63;0.30;;;;;;;36.77;14.82;97864.38;5095978;28;20042;-78
2022/06/22 11:55:42;;;;;;;0.73;0.35;;;;;;;37.20;13.88;97863.38;5095999;28;20036;-78
2022/06/22 11:58:51;;;;;;;0.43;0.30;;;;;;;37.26;13.87;97854.78;5095838;28;20412;-78
2022/06/22 12:01:53;;;;;;;0.93;0.30;;;;;;;36.30;14.84;97852.81;5085608;28;20033;-78
2022/06/22 12:04:37;;;;;;;0.93;0.40;;;;;;;36.28;14.65;97860.34;5085960;28;20040;-78
2022/06/22 12:07:25;;;;;;;1.95;0.40;;;;;;;34.01;15.41;97858.38;5082379;28;20099;-78
2022/06/22 12:10:17;;;;;;;1.05;0.30;;;;;;;33.21;17.53;97870.88;5075356;28;20381;-78
2022/06/22 12:13:01;;;;;;;1.58;0.43;;;;;;;34.03;17.03;97869.31;5075420;28;20067;-78
2022/06/22 12:15:37;;;;;;;0.80;0.47;;;;;;;36.00;15.09;97861.19;5074917;28;20052;-78
2022/06/22 12:18:51;;;;;;;4.75;0.60;;;;;;;36.61;13.77;97851.69;5075131;28;20396;-78
2022/06/22 12:21:31;;;;;;;0.30;0.30;;;;;;;36.04;15.57;97866.63;5075803;28;20491;-78
2022/06/22 12:24:30;;;;;;;1.40;0.57;;;;;;;36.10;14.23;97855.97;5075299;28;20029;-78
2022/06/22 12:27:20;;;;;;;0.70;0.38;;;;;;;37.12;14.36;97865.28;5075142;28;20032;-79
2022/06/22 12:30:09;;;;;;;1.30;0.30;;;;;;;37.30;13.99;97867.50;5075030;28;20043;-78
2022/06/22 12:32:59;;;;;;;0.85;0.60;;;;;;;36.77;14.70;97870.88;5074982;28;20040;-78
2022/06/22 12:35:46;;;;;;;0.95;0.50;;;;;;;37.64;13.90;97861.56;5088306;28;20477;-79
2022/06/22 12:38:20;;;;;;;2.58;0.40;;;;;;;37.65;13.09;97863.09;5084851;28;20469;-79
2022/06/22 12:41:14;;;;;;;1.85;0.50;;;;;;;37.25;13.94;97867.53;5090449;28;20044;-79
2022/06/22 12:43:55;;;;;;;1.85;0.60;;;;;;;36.83;13.98;97857.31;5074431;28;20484;-79
2022/06/22 12:46:59;;;;;;;0.77;0.30;;;;;;;36.85;14.07;97854.72;5074093;28;20036;-79
2022/06/22 12:49:56;;;;;;;0.20;0.20;;;;;;;36.88;14.36;97850.78;5054002;28;20068;-79
2022/06/22 12:52:41;;;;;;;0.50;0.30;;;;;;;37.61;13.38;97854.81;5074606;28;20033;-78